Time;durP1;ratioP1;P1;durP2;ratioP2;P2;SDS_P1;SDS_P2;PMS_P1;PMS_P2;Temp;Humidity;BMP_temperature;BMP_pressure;BME280_temperature;BME280_humidity;BME280_pressure;Samples;Min_cycle;Max_cycle;Signal;HPM_P1;HPM_P2
2023/08/04 00:00:49;;;;;;;1.00;1.00;;;18.00;99.90;;;-141.84;72.10;21029.38;5064913;28;20292;-67
2023/08/04 00:03:18;;;;;;;1.58;1.15;;;18.00;99.90;;;-141.84;72.60;21021.25;5064166;28;20231;-68
2023/08/04 00:05:46;;;;;;;1.50;1.30;;;17.90;99.90;;;-141.84;72.34;20980.59;5048744;28;20308;-67
2023/08/04 00:08:14;;;;;;;0.90;0.90;;;18.00;99.90;;;-141.84;72.92;20990.75;5037046;28;20280;-66
2023/08/04 00:10:42;;;;;;;1.25;1.10;;;17.90;99.90;;;-141.84;72.48;21015.16;5044277;28;20323;-68
2023/08/04 00:13:12;;;;;;;1.30;1.20;;;17.90;99.90;;;-141.84;73.10;20980.59;5053717;28;20291;-67
2023/08/04 00:15:40;;;;;;;2.60;1.08;;;17.90;99.90;;;-141.84;73.57;20954.16;5064613;28;20200;-67
2023/08/04 00:18:08;;;;;;;0.90;0.85;;;17.80;99.90;;;-141.84;72.69;20982.63;5063708;28;20236;-67
2023/08/04 00:20:36;;;;;;;1.98;1.02;;;17.80;99.90;;;-141.84;72.30;21035.47;5056816;28;20225;-67
2023/08/04 00:23:04;;;;;;;1.15;1.05;;;17.90;99.90;;;-141.84;71.30;21033.44;5063521;28;20225;-66
2023/08/04 00:25:33;;;;;;;1.17;0.93;;;18.00;99.90;;;-141.84;71.21;21051.75;5063934;28;20312;-67
2023/08/04 00:28:01;;;;;;;1.33;1.10;;;18.00;99.90;;;-141.84;71.67;21029.38;5063570;28;20248;-68
2023/08/04 00:30:30;;;;;;;1.80;1.10;;;18.00;99.90;;;-141.84;72.46;21007.00;5056671;28;20746;-67
2023/08/04 00:32:58;;;;;;;1.60;1.17;;;18.00;99.90;;;-141.84;71.26;21068.00;5063940;28;20319;-66
2023/08/04 00:35:27;;;;;;;1.45;1.17;;;18.10;99.90;;;-141.84;71.85;21004.97;5063634;28;20255;-69
2023/08/04 00:37:55;;;;;;;1.27;1.10;;;18.10;99.90;;;-141.84;71.52;21037.50;5063646;28;20253;-67
2023/08/04 00:40:23;;;;;;;1.02;0.93;;;18.10;99.90;;;-141.84;71.83;21035.47;5057058;28;20220;-67
2023/08/04 00:42:52;;;;;;;2.88;1.08;;;18.10;99.90;;;-141.84;71.36;21053.78;5063966;28;20250;-67
2023/08/04 00:45:20;;;;;;;1.65;1.00;;;18.10;99.90;;;-141.84;71.20;21029.38;5063012;28;20263;-68
2023/08/04 00:47:49;;;;;;;3.28;1.00;;;18.10;99.90;;;-141.84;71.63;21039.53;5063927;28;20238;-67
2023/08/04 00:50:19;;;;;;;1.42;1.10;;;18.10;99.90;;;-141.84;71.49;21041.56;5054304;28;20701;-68
2023/08/04 00:52:49;;;;;;;0.80;0.80;;;18.10;99.90;;;-141.84;71.44;21065.97;5063256;28;20260;-69
2023/08/04 00:55:18;;;;;;;1.77;1.23;;;18.10;99.90;;;-141.84;70.02;21072.06;5063426;28;20232;-68
2023/08/04 00:57:48;;;;;;;1.05;0.95;;;18.20;99.90;;;-141.84;70.91;21063.94;5063782;28;20204;-67
2023/08/04 01:00:16;;;;;;;1.38;0.80;;;18.20;99.90;;;-141.84;70.62;21061.91;5055082;28;20271;-67
2023/08/04 01:02:45;;;;;;;1.75;1.10;;;18.20;99.90;;;-141.84;71.67;21047.69;5043638;28;20276;-66
2023/08/04 01:05:14;;;;;;;1.00;0.90;;;18.10;99.90;;;-141.84;71.18;21039.53;5042782;28;20282;-68
2023/08/04 01:07:54;;;;;;;1.20;1.10;;;18.20;99.90;;;-141.84;71.62;21013.13;5050062;28;20246;-66
2023/08/04 01:10:29;;;;;;;1.10;1.00;;;18.10;99.90;;;-141.84;71.44;21029.38;5056340;28;20244;-67
2023/08/04 01:13:01;;;;;;;1.73;1.00;;;18.10;99.90;;;-141.84;71.20;21015.16;5063699;28;20851;-67
2023/08/04 01:15:31;;;;;;;0.90;0.90;;;18.10;99.90;;;-141.84;71.41;21019.22;5062914;28;20228;-68
2023/08/04 01:18:00;;;;;;;1.27;1.17;;;18.10;99.90;;;-141.84;70.69;21102.56;5063432;28;20714;-66
2023/08/04 01:20:30;;;;;;;4.20;1.10;;;18.20;99.90;;;-141.84;70.43;21037.50;5056114;28;20225;-66
2023/08/04 01:22:59;;;;;;;1.20;0.90;;;18.20;99.90;;;-141.84;70.80;21055.81;5063691;28;20220;-68
2023/08/04 01:25:33;;;;;;;1.42;1.10;;;18.20;99.90;;;-141.84;71.06;21065.97;5063446;28;20585;-67
2023/08/04 01:28:06;;;;;;;1.75;1.20;;;18.20;99.90;;;-141.84;71.25;21039.53;5054822;28;20412;-67
2023/08/04 01:30:37;;;;;;;1.30;1.20;;;18.20;99.90;;;-141.84;72.02;21037.50;5048640;28;20300;-67
2023/08/04 01:33:05;;;;;;;1.15;1.10;;;18.10;99.90;;;-141.84;72.20;20980.59;5064745;28;20256;-67
2023/08/04 01:35:33;;;;;;;1.17;1.08;;;18.10;99.90;;;-141.84;72.55;20986.69;5066274;28;20238;-67
2023/08/04 01:38:03;;;;;;;1.38;1.27;;;18.10;99.90;;;-141.84;73.86;21007.00;5067194;28;20260;-67
2023/08/04 01:40:31;;;;;;;1.52;1.40;;;18.00;99.90;;;-141.84;75.28;20976.53;5059308;28;20294;-68
2023/08/04 01:42:59;;;;;;;2.30;1.40;;;18.00;99.90;;;-141.84;75.41;20958.22;5067259;28;20200;-66
2023/08/04 01:45:27;;;;;;;1.80;1.40;;;18.00;99.90;;;-141.84;76.07;20901.31;5067180;28;20277;-67
2023/08/04 01:47:55;;;;;;;2.10;1.50;;;17.90;99.90;;;-141.84;77.37;20901.31;5065972;28;20237;-68
2023/08/04 01:50:24;;;;;;;1.92;1.70;;;17.80;99.90;;;-141.84;78.89;20913.50;5059599;28;20616;-66
2023/08/04 01:52:53;;;;;;;3.03;1.73;;;17.70;99.90;;;-141.84;80.78;20876.91;5065888;28;20286;-68
2023/08/04 01:55:23;;;;;;;1.80;1.70;;;17.50;99.90;;;-141.84;82.29;20850.47;5066705;28;20654;-68
2023/08/04 01:57:51;;;;;;;3.47;1.70;;;17.50;99.90;;;-141.84;84.21;20793.56;5054597;28;20296;-66
2023/08/04 02:00:19;;;;;;;2.85;1.85;;;17.30;99.90;;;-141.84;85.91;20732.56;5039091;28;20320;-67
2023/08/04 02:02:47;;;;;;;1.95;1.80;;;17.10;99.90;;;-141.84;86.64;20754.94;5046262;28;20276;-66
2023/08/04 02:05:16;;;;;;;2.97;2.15;;;17.00;99.90;;;-141.84;87.54;20704.13;5046096;28;20225;-66
2023/08/04 02:07:44;;;;;;;2.65;2.42;;;16.90;99.90;;;-141.84;88.35;20712.25;5045839;28;20260;-67
2023/08/04 02:10:13;;;;;;;2.50;2.05;;;16.90;99.90;;;-141.84;88.17;20728.50;5044516;28;20680;-66
2023/08/04 02:12:43;;;;;;;2.28;2.05;;;16.70;99.90;;;-141.84;88.61;20704.13;5055719;28;20208;-66
2023/08/04 02:15:11;;;;;;;2.13;1.90;;;16.70;99.90;;;-141.84;88.61;20649.22;5066555;28;20286;-66
2023/08/04 02:17:39;;;;;;;2.20;2.00;;;16.60;99.90;;;-141.84;88.73;20683.78;5065892;28;20283;-67
2023/08/04 02:20:09;;;;;;;2.28;2.08;;;16.60;99.90;;;-141.84;90.09;20616.69;5065886;28;20708;-66
2023/08/04 02:22:37;;;;;;;2.30;2.10;;;16.50;99.90;;;-141.84;91.29;20645.16;5060598;28;20925;-66
2023/08/04 02:25:07;;;;;;;2.60;2.15;;;16.50;99.90;;;-141.84;92.01;20639.06;5066419;28;20204;-67
2023/08/04 02:27:35;;;;;;;2.97;2.60;;;16.50;99.90;;;-141.84;92.26;20616.69;5061357;28;20236;-66
2023/08/04 02:30:07;;;;;;;3.92;2.55;;;16.50;99.90;;;-141.84;92.60;20598.41;5053403;28;20247;-67
2023/08/04 02:32:35;;;;;;;2.92;2.72;;;16.50;99.90;;;-141.84;92.63;20618.72;5058755;28;20331;-66
2023/08/04 02:35:03;;;;;;;3.72;2.90;;;16.50;99.90;;;-141.84;92.37;20608.56;5065503;28;20236;-67
2023/08/04 02:37:32;;;;;;;3.67;2.63;;;16.40;99.90;;;-141.84;92.39;20641.09;5065286;28;20254;-67
2023/08/04 02:40:00;;;;;;;3.50;3.20;;;16.40;99.90;;;-141.84;92.99;20596.38;5065369;28;20207;-66
2023/08/04 02:42:28;;;;;;;3.58;2.95;;;16.40;99.90;;;-141.84;93.60;20584.19;5057043;28;20291;-67
2023/08/04 02:44:57;;;;;;;3.50;3.20;;;16.40;99.90;;;-141.84;93.65;20559.78;5064334;28;20256;-65
2023/08/04 02:47:26;;;;;;;3.20;3.00;;;16.40;99.90;;;-141.84;93.55;20586.22;5065081;28;20884;-66
2023/08/04 02:49:55;;;;;;;3.45;3.22;;;16.40;99.90;;;-141.84;94.00;20569.94;5065271;28;20241;-67
2023/08/04 02:52:23;;;;;;;3.50;3.20;;;16.40;99.90;;;-141.84;94.38;20555.72;5058107;28;20697;-66
2023/08/04 02:54:55;;;;;;;3.38;3.15;;;16.40;99.90;;;-141.84;94.62;20539.47;5047061;28;20738;-65
2023/08/04 02:57:28;;;;;;;3.80;3.50;;;16.40;99.90;;;-141.84;94.89;20545.56;5064956;28;20260;-67
2023/08/04 02:59:56;;;;;;;3.85;3.55;;;16.40;99.90;;;-141.84;95.10;20541.50;5065327;28;20232;-66
2023/08/04 03:02:26;;;;;;;3.33;2.88;;;16.30;99.90;;;-141.84;95.44;20539.47;5058152;28;20255;-67
2023/08/04 03:04:54;;;;;;;3.75;3.45;;;16.40;99.90;;;-141.84;95.57;20545.56;5066071;28;20240;-66
2023/08/04 03:07:22;;;;;;;3.80;3.42;;;16.40;99.90;;;-141.84;95.47;20561.81;5064576;28;20231;-67
2023/08/04 03:09:51;;;;;;;3.33;3.03;;;16.40;99.90;;;-141.84;95.54;20523.19;5065314;28;20744;-66
2023/08/04 03:12:19;;;;;;;4.20;3.80;;;16.30;99.90;;;-141.84;95.77;20527.25;5057500;28;20263;-67
2023/08/04 03:14:47;;;;;;;3.38;3.10;;;16.40;99.90;;;-141.84;96.00;20500.84;5064985;28;20240;-67
2023/08/04 03:17:15;;;;;;;4.07;3.38;;;16.40;99.90;;;-141.84;96.14;20545.56;5064211;28;20703;-67
2023/08/04 03:19:45;;;;;;;3.67;3.38;;;16.40;99.90;;;-141.84;95.99;20588.25;5064603;28;20311;-67
2023/08/04 03:22:13;;;;;;;6.32;3.42;;;16.40;99.90;;;-141.84;96.03;20502.88;5062598;28;20236;-66
2023/08/04 03:24:42;;;;;;;5.05;4.22;;;16.40;99.90;;;-141.84;96.18;20506.94;5063225;28;20220;-66
2023/08/04 03:27:10;;;;;;;4.47;3.72;;;16.30;99.90;;;-141.84;96.19;20527.25;5064261;28;20699;-67
2023/08/04 03:29:38;;;;;;;3.70;3.40;;;16.40;99.90;;;-141.84;96.47;20502.88;5064716;28;20302;-66
2023/08/04 03:32:07;;;;;;;4.00;3.70;;;16.40;99.90;;;-141.84;96.69;20500.84;5064161;28;20236;-66
2023/08/04 03:34:35;;;;;;;4.05;3.65;;;16.40;99.90;;;-141.84;96.65;20508.97;5057154;28;20806;-66
2023/08/04 03:37:05;;;;;;;4.28;3.90;;;16.40;99.90;;;-141.84;96.74;20531.31;5064389;28;20208;-65
2023/08/04 03:39:34;;;;;;;4.10;3.70;;;16.40;99.90;;;-141.84;96.71;20533.34;5064789;28;20208;-66
2023/08/04 03:42:02;;;;;;;5.53;3.97;;;16.40;99.90;;;-141.84;96.63;20502.88;5064593;28;20235;-66
2023/08/04 03:44:31;;;;;;;5.53;3.83;;;16.40;99.90;;;-141.84;96.73;20492.72;5056979;28;20636;-66
2023/08/04 03:46:59;;;;;;;4.07;3.78;;;16.40;99.90;;;-141.84;96.90;20472.38;5064022;28;20328;-66
2023/08/04 03:49:27;;;;;;;4.43;4.00;;;16.40;99.90;;;-141.84;96.69;20470.34;5059486;28;20340;-66
2023/08/04 03:51:55;;;;;;;4.82;3.72;;;16.40;99.90;;;-141.84;96.69;20511.00;5045240;28;20304;-66
2023/08/04 03:54:25;;;;;;;4.28;3.88;;;16.40;99.90;;;-141.84;96.74;20502.88;5037137;28;20862;-67
2023/08/04 03:56:53;;;;;;;4.50;4.10;;;16.50;99.90;;;-141.84;96.83;20488.63;5048124;28;20220;-66
2023/08/04 03:59:21;;;;;;;4.00;3.60;;;16.50;99.90;;;-141.84;96.77;20517.09;5064319;28;20315;-66
2023/08/04 04:01:49;;;;;;;4.30;3.85;;;16.50;99.90;;;-141.84;96.87;20496.78;5064202;28;20312;-67
2023/08/04 04:04:19;;;;;;;4.90;4.25;;;16.50;99.90;;;-141.84;96.96;20484.56;5057028;28;20270;-67
2023/08/04 04:06:47;;;;;;;4.78;4.28;;;16.50;99.90;;;-141.84;96.95;20511.00;5064245;28;20207;-68
2023/08/04 04:09:15;;;;;;;4.38;3.97;;;16.50;99.90;;;-141.84;96.69;20533.34;5063996;28;20276;-67
2023/08/04 04:11:45;;;;;;;4.10;3.75;;;16.50;99.90;;;-141.84;96.70;20543.53;5064345;28;20711;-66
2023/08/04 04:14:13;;;;;;;4.10;3.75;;;16.40;99.90;;;-141.84;96.67;20525.22;5061066;28;20236;-66
2023/08/04 04:16:41;;;;;;;4.25;3.90;;;16.50;99.90;;;-141.84;96.76;20541.50;5063780;28;20304;-68
2023/08/04 04:19:10;;;;;;;4.57;4.18;;;16.60;99.90;;;-141.84;96.01;20561.81;5063731;28;20216;-66
2023/08/04 04:21:38;;;;;;;4.65;4.20;;;16.60;99.90;;;-141.84;95.40;20563.84;5064623;28;20226;-66
2023/08/04 04:24:06;;;;;;;3.95;3.63;;;16.70;99.90;;;-141.84;94.69;20565.88;5063721;28;20255;-67
2023/08/04 04:26:34;;;;;;;4.32;3.97;;;16.70;99.90;;;-141.84;94.67;20598.41;5056307;28;20340;-67
2023/08/04 04:29:04;;;;;;;5.72;4.07;;;16.70;99.90;;;-141.84;94.72;20584.19;5064050;28;20762;-66
2023/08/04 04:31:32;;;;;;;4.68;4.28;;;16.70;99.90;;;-141.84;94.60;20584.19;5061351;28;20853;-68
2023/08/04 04:34:00;;;;;;;4.30;3.85;;;16.70;99.90;;;-141.84;93.99;20610.59;5063672;28;20698;-66
2023/08/04 04:36:28;;;;;;;5.60;4.82;;;16.80;99.90;;;-141.84;93.68;20620.78;5057329;28;20295;-67
2023/08/04 04:38:57;;;;;;;5.10;3.97;;;16.70;99.90;;;-141.84;93.63;20600.44;5063699;28;20236;-67
2023/08/04 04:41:25;;;;;;;5.20;4.18;;;16.80;99.90;;;-141.84;93.56;20598.41;5064115;28;20228;-66
2023/08/04 04:43:55;;;;;;;5.65;4.22;;;16.80;99.90;;;-141.84;93.75;20594.34;5063820;28;20282;-68
2023/08/04 04:46:24;;;;;;;4.53;4.13;;;16.80;99.90;;;-141.84;92.58;20630.94;5046530;28;20217;-66
2023/08/04 04:48:52;;;;;;;4.97;4.47;;;16.80;99.90;;;-141.84;91.19;20659.38;5064260;28;20558;-67
2023/08/04 04:51:21;;;;;;;5.82;4.80;;;16.90;99.90;;;-141.84;91.19;20659.38;5063050;28;20228;-67
2023/08/04 04:53:49;;;;;;;5.55;5.00;;;16.90;99.90;;;-141.84;91.07;20679.72;5063686;28;20820;-67
2023/08/04 04:56:17;;;;;;;5.07;4.55;;;17.00;99.90;;;-141.84;91.09;20685.81;5056822;28;20247;-66
2023/08/04 04:58:45;;;;;;;5.38;4.80;;;17.10;99.90;;;-141.84;90.35;20700.03;5062491;28;20228;-66
2023/08/04 05:01:13;;;;;;;4.60;4.05;;;17.20;99.90;;;-141.84;90.02;20655.31;5062696;28;20197;-66
2023/08/04 05:03:43;;;;;;;4.50;3.97;;;17.20;99.90;;;-141.84;90.53;20704.13;5063881;28;20292;-66
2023/08/04 05:06:11;;;;;;;5.15;4.10;;;17.20;99.90;;;-141.84;90.55;20689.88;5063213;28;20289;-67
2023/08/04 05:08:39;;;;;;;5.10;4.60;;;17.20;99.90;;;-141.84;89.34;20698.00;5061961;28;20232;-66
2023/08/04 05:11:08;;;;;;;4.90;4.13;;;17.20;99.90;;;-141.84;90.04;20677.69;5067013;28;20442;-66
2023/08/04 05:13:36;;;;;;;4.63;4.07;;;17.20;99.90;;;-141.84;90.56;20649.22;5067397;28;20274;-67
2023/08/04 05:16:04;;;;;;;4.18;3.78;;;17.20;99.90;;;-141.84;90.92;20645.16;5066878;28;20200;-66
2023/08/04 05:18:33;;;;;;;4.50;4.05;;;17.20;99.90;;;-141.84;89.56;20675.66;5060728;28;20640;-66
2023/08/04 05:21:03;;;;;;;5.28;4.18;;;17.10;99.90;;;-141.84;89.53;20704.13;5065322;28;20667;-66
2023/08/04 05:23:31;;;;;;;4.32;3.92;;;17.10;99.90;;;-141.84;89.15;20647.19;5059944;28;20228;-67
2023/08/04 05:25:59;;;;;;;4.50;4.00;;;17.20;99.90;;;-141.84;89.24;20675.66;5046931;28;20298;-67
2023/08/04 05:28:30;;;;;;;4.35;3.95;;;17.00;99.90;;;-141.84;88.88;20708.19;5050263;28;20606;-67
2023/08/04 05:31:00;;;;;;;4.35;3.88;;;17.10;99.90;;;-141.84;89.20;20639.06;5066319;28;20209;-68
2023/08/04 05:33:30;;;;;;;4.30;3.90;;;17.00;99.90;;;-141.84;89.73;20647.19;5065861;28;20278;-67
2023/08/04 05:36:00;;;;;;;4.32;3.85;;;17.00;99.90;;;-141.84;88.81;20671.59;5065085;28;20323;-67
2023/08/04 05:38:29;;;;;;;4.25;3.65;;;17.00;99.90;;;-141.84;88.88;20661.44;5057753;28;20598;-67
2023/08/04 05:41:02;;;;;;;4.63;3.72;;;17.00;99.90;;;-141.84;89.47;20639.06;5065259;28;20244;-68
2023/08/04 05:43:30;;;;;;;5.57;4.32;;;17.00;99.90;;;-141.84;90.26;20669.56;5066391;28;20311;-67
2023/08/04 05:46:03;;;;;;;4.35;3.70;;;17.00;99.90;;;-141.84;88.96;20647.19;5065702;28;20544;-67
2023/08/04 05:48:32;;;;;;;5.55;3.70;;;17.20;99.90;;;-141.84;88.63;20685.81;5057657;28;20493;-68
2023/08/04 05:51:01;;;;;;;4.20;3.72;;;17.20;99.90;;;-141.84;89.11;20716.31;5064785;28;20307;-68
2023/08/04 05:53:30;;;;;;;4.60;4.20;;;17.20;99.90;;;-141.84;88.81;20740.69;5064921;28;20260;-66
2023/08/04 05:55:58;;;;;;;4.30;3.42;;;17.30;99.90;;;-141.84;87.60;20734.59;5064865;28;20236;-68
2023/08/04 05:58:27;;;;;;;4.05;3.65;;;17.40;99.90;;;-141.84;86.84;20791.53;5057689;28;20244;-66
2023/08/04 06:00:55;;;;;;;4.82;3.60;;;17.50;99.90;;;-141.84;86.36;20795.59;5064960;28;20236;-67
2023/08/04 06:03:23;;;;;;;3.83;3.53;;;17.60;99.90;;;-141.84;86.85;20805.75;5064800;28;20712;-67
2023/08/04 06:05:51;;;;;;;3.88;3.58;;;17.80;99.90;;;-141.84;85.12;20828.13;5064559;28;20597;-66
2023/08/04 06:08:20;;;;;;;3.35;3.10;;;17.80;99.90;;;-141.84;84.41;20858.59;5057041;28;20221;-68
2023/08/04 06:10:49;;;;;;;3.38;3.08;;;17.90;99.90;;;-141.84;84.66;20815.91;5064898;28;20240;-65
2023/08/04 06:13:17;;;;;;;3.28;2.80;;;17.90;99.90;;;-141.84;84.71;20828.13;5064519;28;20243;-65
2023/08/04 06:15:47;;;;;;;3.40;3.10;;;17.90;99.90;;;-141.84;83.93;20828.13;5064076;28;20684;-67
2023/08/04 06:18:15;;;;;;;3.72;3.42;;;17.90;99.90;;;-141.84;81.95;20909.44;5056891;28;20232;-65
2023/08/04 06:20:44;;;;;;;2.83;2.63;;;18.00;99.90;;;-141.84;82.47;20915.53;5062938;28;20232;-65
2023/08/04 06:23:13;;;;;;;6.55;2.90;;;18.00;99.90;;;-141.84;81.84;20878.94;5064333;28;20290;-65
2023/08/04 06:25:41;;;;;;;2.97;2.65;;;18.10;99.90;;;-141.84;79.58;21000.91;5064439;28;20308;-64
2023/08/04 06:28:10;;;;;;;3.65;3.25;;;18.30;99.90;;;-141.84;77.69;21037.50;5064665;28;20308;-65
2023/08/04 06:30:38;;;;;;;3.22;2.92;;;18.30;99.90;;;-141.84;79.08;21068.00;5060123;28;20233;-66
2023/08/04 06:33:06;;;;;;;3.80;3.30;;;18.50;99.90;;;-141.84;76.88;21110.69;5064283;28;20319;-65
2023/08/04 06:35:35;;;;;;;3.30;3.10;;;18.60;99.90;;;-141.84;75.78;21161.53;5064060;28;20232;-65
2023/08/04 06:38:03;;;;;;;3.20;2.90;;;18.80;99.90;;;-141.84;75.91;21179.81;5060851;28;20229;-65
2023/08/04 06:40:31;;;;;;;3.63;2.92;;;18.90;99.90;;;-141.84;76.88;21143.22;5036442;28;20300;-66
2023/08/04 06:42:59;;;;;;;3.88;2.83;;;18.90;99.90;;;-141.84;76.54;21165.59;5072947;28;20208;-66
2023/08/04 06:45:29;;;;;;;5.25;4.63;;;18.90;99.90;;;-141.84;75.72;21157.47;5083232;28;20262;-66
2023/08/04 06:47:57;;;;;;;3.63;3.22;;;18.90;99.90;;;-141.84;77.39;21084.28;5082258;28;20589;-66
2023/08/04 06:50:26;;;;;;;5.07;3.35;;;18.80;99.90;;;-141.84;78.49;21082.25;5064941;28;20239;-65
2023/08/04 06:52:54;;;;;;;3.97;3.50;;;18.80;99.90;;;-141.84;77.90;21072.06;5084292;28;20234;-65
2023/08/04 06:55:22;;;;;;;4.22;3.45;;;18.80;99.90;;;-141.84;77.16;21092.41;5083870;28;20280;-65
2023/08/04 06:57:50;;;;;;;3.58;3.28;;;18.80;99.90;;;-141.84;76.19;21070.03;5084030;28;20287;-65
2023/08/04 07:00:19;;;;;;;4.82;3.47;;;18.70;99.90;;;-141.84;76.34;21110.69;5075780;28;20227;-65
2023/08/04 07:02:49;;;;;;;4.25;3.30;;;18.70;99.90;;;-141.84;77.53;21017.19;5083579;28;20263;-65
2023/08/04 07:05:18;;;;;;;5.70;3.00;;;18.50;99.90;;;-141.84;78.61;20994.81;5083673;28;20234;-66
2023/08/04 07:07:47;;;;;;;3.55;3.25;;;18.30;99.90;;;-141.84;79.50;20952.13;5083450;28;20224;-65
2023/08/04 07:10:16;;;;;;;3.92;3.40;;;18.20;99.90;;;-141.84;81.09;20854.53;5075828;28;20243;-65
2023/08/04 07:12:44;;;;;;;4.30;3.47;;;18.00;99.90;;;-141.84;81.34;20858.59;5071082;28;20747;-64
2023/08/04 07:15:12;;;;;;;5.93;3.85;;;17.90;99.90;;;-141.84;79.75;20868.78;5062707;28;20327;-66
2023/08/04 07:17:41;;;;;;;5.00;4.15;;;17.80;99.90;;;-141.84;78.32;20850.47;5063055;28;20237;-65
2023/08/04 07:20:12;;;;;;;6.03;3.60;;;17.70;99.90;;;-141.84;79.10;20809.81;5068990;28;20224;-65
2023/08/04 07:22:41;;;;;;;4.43;3.63;;;17.60;99.90;;;-141.84;79.24;20846.41;5059867;28;20641;-65
2023/08/04 07:25:09;;;;;;;6.60;3.55;;;17.70;99.90;;;-141.84;79.19;20858.59;5063147;28;20671;-65
2023/08/04 07:27:37;;;;;;;3.95;3.28;;;17.70;99.90;;;-141.84;79.53;20878.94;5058674;28;20280;-65
2023/08/04 07:30:07;;;;;;;4.95;3.90;;;17.70;99.90;;;-141.84;78.41;20915.53;5057161;28;20260;-66
2023/08/04 07:32:38;;;;;;;6.28;4.28;;;17.70;99.90;;;-141.84;78.26;20919.59;5057277;28;20232;-66
2023/08/04 07:35:07;;;;;;;6.68;4.10;;;17.90;99.90;;;-141.84;77.37;21007.00;5052547;28;20229;-65
2023/08/04 07:37:36;;;;;;;4.40;3.95;;;18.10;99.90;;;-141.84;76.63;21061.91;5043019;28;20794;-66
2023/08/04 07:40:05;;;;;;;5.18;4.75;;;18.40;99.90;;;-141.84;72.01;21216.41;5042754;28;20292;-65
2023/08/04 07:42:34;;;;;;;6.13;5.00;;;18.70;99.90;;;-141.84;71.46;21238.78;5057603;28;20286;-65
2023/08/04 07:45:02;;;;;;;6.68;5.03;;;19.00;99.90;;;-141.84;69.24;21324.19;5082559;28;20235;-64
2023/08/04 07:47:30;;;;;;;6.15;5.53;;;19.10;99.90;;;-141.84;70.41;21316.03;5082794;28;20223;-66
2023/08/04 07:49:58;;;;;;;7.18;5.43;;;19.20;99.90;;;-141.84;69.92;21340.44;5082343;28;20578;-65
2023/08/04 07:52:26;;;;;;;6.07;5.47;;;19.30;99.90;;;-141.84;69.59;21381.09;5075092;28;20234;-65
2023/08/04 07:54:56;;;;;;;5.93;5.03;;;19.20;99.90;;;-141.84;70.06;21295.72;5083678;28;20231;-65
2023/08/04 07:57:24;;;;;;;8.02;6.00;;;19.20;99.90;;;-141.84;69.71;21352.63;5082673;28;20315;-66
2023/08/04 07:59:52;;;;;;;7.45;5.90;;;19.30;99.90;;;-141.84;71.09;21295.72;5082828;28;20251;-65
2023/08/04 08:02:20;;;;;;;7.20;5.95;;;19.30;99.90;;;-141.84;71.57;21301.81;5075596;28;20230;-65
2023/08/04 08:04:48;;;;;;;6.32;5.63;;;19.30;99.90;;;-141.84;71.35;21326.22;5082691;28;20262;-65
2023/08/04 08:07:16;;;;;;;6.25;5.65;;;19.20;99.90;;;-141.84;72.04;21295.72;5083309;28;20277;-65
2023/08/04 08:09:48;;;;;;;6.00;5.40;;;19.30;99.90;;;-141.84;70.95;21303.84;5064029;28;20282;-66
2023/08/04 08:12:17;;;;;;;7.30;5.80;;;19.20;99.90;;;-141.84;70.84;21277.41;5049866;28;20319;-64
2023/08/04 08:14:45;;;;;;;7.43;5.38;;;19.20;99.90;;;-141.84;70.92;21293.69;5062452;28;20238;-65
2023/08/04 08:17:14;;;;;;;6.85;5.50;;;19.20;99.90;;;-141.84;70.57;21289.59;5061448;28;20255;-66
2023/08/04 08:19:42;;;;;;;7.10;5.30;;;19.20;99.90;;;-141.84;70.90;21322.13;5071303;28;20306;-66
2023/08/04 08:22:10;;;;;;;5.53;4.60;;;19.20;99.90;;;-141.84;69.86;21259.13;5082356;28;20235;-66
2023/08/04 08:24:38;;;;;;;6.65;4.38;;;19.20;99.90;;;-141.84;70.05;21232.69;5077416;28;20795;-67
2023/08/04 08:27:06;;;;;;;5.97;4.43;;;19.10;99.90;;;-141.84;71.58;21230.66;5081724;28;20879;-65
2023/08/04 08:29:40;;;;;;;4.45;4.03;;;19.00;99.90;;;-141.84;72.06;21204.22;5064694;28;20216;-65
2023/08/04 08:32:08;;;;;;;5.13;4.60;;;19.00;99.90;;;-141.84;70.58;21196.09;5048024;28;20315;-65
2023/08/04 08:34:36;;;;;;;6.25;4.28;;;19.00;99.90;;;-141.84;72.13;21177.78;5034793;28;20237;-65
2023/08/04 08:37:09;;;;;;;7.57;4.85;;;18.90;99.90;;;-141.84;74.40;21078.16;5042203;28;20221;-65
2023/08/04 08:39:37;;;;;;;7.95;4.70;;;18.70;99.90;;;-141.84;75.22;21019.22;5042387;28;20259;-65
2023/08/04 08:42:06;;;;;;;5.63;4.55;;;18.70;99.90;;;-141.84;75.11;20998.88;5055907;28;20748;-65
2023/08/04 08:44:35;;;;;;;5.85;4.53;;;18.50;99.90;;;-141.84;76.12;20984.66;5078665;28;20320;-64
2023/08/04 08:47:04;;;;;;;4.60;4.05;;;18.50;99.90;;;-141.84;77.46;20966.34;5086238;28;20644;-65
2023/08/04 08:49:41;;;;;;;5.63;4.13;;;18.40;99.90;;;-141.84;76.24;21031.41;5085996;28;20302;-66
2023/08/04 08:52:10;;;;;;;5.00;3.83;;;18.50;99.90;;;-141.84;76.72;20992.78;5086138;28;20774;-65
2023/08/04 08:54:39;;;;;;;4.65;3.50;;;18.50;99.90;;;-141.84;76.10;21059.88;5082841;28;20749;-66
2023/08/04 08:57:08;;;;;;;5.13;3.60;;;18.50;99.90;;;-141.84;75.68;21094.44;5086146;28;20227;-66
2023/08/04 08:59:38;;;;;;;5.40;3.38;;;18.70;99.90;;;-141.84;74.06;21202.19;5086453;28;20258;-65
2023/08/04 09:02:07;;;;;;;3.05;2.58;;;18.90;99.90;;;-141.84;70.01;21314.00;5086224;28;20231;-65
2023/08/04 09:04:37;;;;;;;4.15;2.60;;;19.20;99.90;;;-141.84;70.01;21346.53;5070788;28;20240;-65
2023/08/04 09:07:07;;;;;;;3.20;2.88;;;19.50;99.90;;;-141.84;68.36;21419.72;5065687;28;20213;-65
2023/08/04 09:09:36;;;;;;;2.95;2.65;;;19.60;99.90;;;-141.84;68.80;21364.84;5050542;28;20311;-65
2023/08/04 09:12:07;;;;;;;4.00;2.72;;;19.70;99.90;;;-141.84;69.38;21364.84;5046029;28;20229;-65
2023/08/04 09:14:51;;;;;;;3.80;2.90;;;19.80;99.90;;;-141.84;69.01;21379.06;5058589;28;20601;-65
2023/08/04 09:17:34;;;;;;;3.05;2.70;;;19.70;99.90;;;-141.84;68.78;21362.81;5065939;28;20263;-65
2023/08/04 09:20:04;;;;;;;4.00;2.90;;;19.80;99.90;;;-141.84;68.78;21387.19;5077552;28;20241;-66
2023/08/04 09:22:38;;;;;;;4.22;2.70;;;19.80;99.90;;;-141.84;67.80;21458.38;5078616;28;21500;-66
2023/08/04 09:25:07;;;;;;;2.92;2.35;;;20.00;99.90;;;-141.84;67.38;21509.19;5085762;28;20208;-66
2023/08/04 09:27:38;;;;;;;3.03;2.60;;;20.10;99.90;;;-141.84;66.66;21551.91;5074420;28;20249;-66
2023/08/04 09:30:10;;;;;;;2.65;2.20;;;20.40;99.90;;;-141.84;62.34;21694.22;5075026;28;20703;-66
2023/08/04 09:32:44;;;;;;;3.00;2.22;;;20.60;99.90;;;-141.84;63.19;21610.84;5041359;28;20239;-66
2023/08/04 09:35:13;;;;;;;2.75;2.40;;;20.60;99.90;;;-141.84;63.73;21698.28;5044927;28;20233;-66
2023/08/04 09:37:42;;;;;;;4.05;2.75;;;20.80;99.90;;;-141.84;63.47;21690.16;5045232;28;20229;-65
2023/08/04 09:40:16;;;;;;;7.13;3.00;;;20.90;99.90;;;-141.84;64.18;21712.53;5045416;28;20270;-66
2023/08/04 09:42:46;;;;;;;3.47;2.90;;;20.90;99.90;;;-141.84;64.87;21734.88;5070404;28;20207;-64
2023/08/04 09:45:18;;;;;;;3.78;2.75;;;21.00;99.90;;;-141.84;63.24;21810.13;5085183;28;20610;-65
2023/08/04 09:47:48;;;;;;;3.85;2.60;;;21.20;99.90;;;-141.84;61.69;21885.38;5085298;28;20228;-66
2023/08/04 09:50:19;;;;;;;3.20;2.10;;;21.30;99.90;;;-141.84;61.65;21921.97;5048493;28;20610;-65
2023/08/04 09:52:47;;;;;;;3.03;2.25;;;21.60;99.90;;;-141.84;57.53;22058.22;5045322;28;20328;-65
2023/08/04 09:55:15;;;;;;;2.72;2.35;;;21.70;99.90;;;-141.84;58.42;22031.78;5044417;28;20233;-66
2023/08/04 09:57:44;;;;;;;3.42;2.50;;;21.80;99.90;;;-141.84;55.73;22119.22;5045392;28;20205;-65
2023/08/04 10:00:13;;;;;;;3.20;2.20;;;22.00;99.90;;;-141.84;56.60;22127.34;5045994;28;20231;-66
2023/08/04 10:02:44;;;;;;;2.55;2.28;;;22.10;99.90;;;-141.84;54.80;22176.16;5065107;28;20330;-66
2023/08/04 10:05:13;;;;;;;3.15;2.28;;;22.00;99.90;;;-141.84;56.16;22235.13;5054338;28;20264;-65
2023/08/04 10:07:42;;;;;;;4.53;2.30;;;22.20;99.90;;;-141.84;53.56;22316.47;5045272;28;20232;-66
2023/08/04 10:10:11;;;;;;;3.38;2.38;;;22.40;99.90;;;-141.84;52.96;22414.09;5044611;28;20215;-66
2023/08/04 10:12:40;;;;;;;4.03;2.22;;;22.50;99.90;;;-141.84;54.88;22322.56;5048501;28;20232;-65